Time;durP1;ratioP1;P1;durP2;ratioP2;P2;SDS_P1;SDS_P2;PMS_P1;PMS_P2;Temp;Humidity;BMP_temperature;BMP_pressure;BME280_temperature;BME280_humidity;BME280_pressure;Samples;Min_cycle;Max_cycle;Signal;HPM_P1;HPM_P2
2022/06/16 00:00:56;;;;;;;;;;;20.40;93.90;;;;;;4346382;32;45096;-77
2022/06/16 00:03:24;;;;;;;;;;;20.40;94.00;;;;;;4346480;32;43395;-77
2022/06/16 00:05:51;;;;;;;;;;;20.30;93.80;;;;;;4360310;32;43550;-76
2022/06/16 00:08:18;;;;;;;;;;;20.40;93.60;;;;;;4360091;32;43870;-77
2022/06/16 00:13:36;;;;;;;;;;;20.30;93.80;;;;;;4359766;32;42679;-77
2022/06/16 00:16:04;;;;;;;;;;;20.30;93.80;;;;;;4360395;32;43238;-76
2022/06/16 00:18:31;;;;;;;;;;;20.30;93.80;;;;;;4359886;32;43963;-77
2022/06/16 00:20:58;;;;;;;;;;;20.20;93.80;;;;;;4360173;32;43173;-77
2022/06/16 00:23:25;;;;;;;;;;;20.20;93.80;;;;;;4346746;32;44838;-77
2022/06/16 00:25:52;;;;;;;;;;;20.20;93.70;;;;;;4360020;32;43942;-77
2022/06/16 00:28:19;;;;;;;;;;;20.10;93.60;;;;;;4346168;33;44329;-77
2022/06/16 00:30:46;;;;;;;;;;;20.10;93.80;;;;;;4346458;33;42886;-77
2022/06/16 00:33:13;;;;;;;;;;;20.10;94.00;;;;;;4359805;32;42174;-77
2022/06/16 00:35:40;;;;;;;;;;;20.10;93.80;;;;;;4359999;32;43782;-77
2022/06/16 00:38:07;;;;;;;;;;;20.10;93.80;;;;;;4346585;33;43646;-78
2022/06/16 00:40:34;;;;;;;;;;;20.10;94.00;;;;;;4359523;33;42790;-77
2022/06/16 00:43:02;;;;;;;;;;;20.10;93.80;;;;;;4359556;32;42998;-77
2022/06/16 00:45:47;;;;;;;;;;;20.10;93.90;;;;;;4346374;33;45188;-77
2022/06/16 00:48:18;;;;;;;;;;;20.10;93.80;;;;;;4359562;32;44459;-77
2022/06/16 00:50:49;;;;;;;;;;;20.00;93.70;;;;;;4346187;33;43297;-77
2022/06/16 00:53:16;;;;;;;;;;;20.00;93.60;;;;;;4359544;32;44222;-77
2022/06/16 00:55:44;;;;;;;;;;;20.00;93.80;;;;;;4346196;33;44116;-77
2022/06/16 00:58:11;;;;;;;;;;;20.00;94.00;;;;;;4346547;33;43705;-77
2022/06/16 01:00:47;;;;;;;;;;;20.00;93.80;;;;;;4359451;32;43683;-76
2022/06/16 01:04:51;;;;;;;;;;;20.00;93.90;;;;;;4359926;32;44604;-77
2022/06/16 01:06:02;;;;;;;;;;;20.00;94.00;;;;;;4360117;32;43462;-77
2022/06/16 01:08:30;;;;;;;;;;;20.00;93.90;;;;;;4348778;32;42864;-77
2022/06/16 01:10:59;;;;;;;;;;;20.00;94.00;;;;;;4362488;32;43466;-77
2022/06/16 01:13:43;;;;;;;;;;;20.00;94.00;;;;;;4363556;32;20039;-77
2022/06/16 01:16:29;;;;;;;;;;;20.00;94.00;;;;;;4362359;32;42904;-77
2022/06/16 01:19:03;;;;;;;;;;;19.90;94.10;;;;;;4348970;32;42123;-77
2022/06/16 01:21:50;;;;;;;;;;;19.90;94.10;;;;;;4349414;32;43882;-77
2022/06/16 01:24:26;;;;;;;;;;;19.90;94.10;;;;;;4351848;32;44312;-78
2022/06/16 01:27:10;;;;;;;;;;;19.90;94.20;;;;;;4362554;32;43480;-77
2022/06/16 01:29:56;;;;;;;;;;;19.90;94.20;;;;;;4348717;32;43620;-77
2022/06/16 01:32:30;;;;;;;;;;;19.90;94.10;;;;;;4348561;32;43257;-77
2022/06/16 01:35:10;;;;;;;;;;;19.90;94.10;;;;;;4349025;32;43606;-77
2022/06/16 01:37:46;;;;;;;;;;;19.90;94.00;;;;;;4362462;32;42883;-77
2022/06/16 01:40:25;;;;;;;;;;;19.90;94.00;;;;;;4362254;32;44190;-77
2022/06/16 01:43:10;;;;;;;;;;;19.80;94.20;;;;;;4348461;32;42375;-77
2022/06/16 01:45:53;;;;;;;;;;;19.80;94.10;;;;;;4348356;32;42063;-77
2022/06/16 01:48:21;;;;;;;;;;;19.90;94.30;;;;;;4362090;32;42575;-77
2022/06/16 01:50:52;;;;;;;;;;;19.80;94.20;;;;;;4361551;32;44728;-78
2022/06/16 01:53:26;;;;;;;;;;;19.80;94.20;;;;;;4348463;32;42670;-78
2022/06/16 01:55:56;;;;;;;;;;;19.80;94.40;;;;;;4362127;32;42626;-77
2022/06/16 01:58:31;;;;;;;;;;;19.80;94.30;;;;;;4361510;32;44305;-77
2022/06/16 02:01:00;;;;;;;;;;;19.70;94.20;;;;;;4348492;32;42858;-77
2022/06/16 02:03:35;;;;;;;;;;;19.80;94.30;;;;;;4348068;32;43919;-77
2022/06/16 02:06:09;;;;;;;;;;;19.70;94.30;;;;;;4362088;32;43222;-77
2022/06/16 02:08:38;;;;;;;;;;;19.70;94.40;;;;;;4361521;32;44369;-77
2022/06/16 02:11:26;;;;;;;;;;;19.70;94.40;;;;;;4361224;32;44917;-77
2022/06/16 02:13:57;;;;;;;;;;;19.70;94.30;;;;;;4361509;32;45226;-77
2022/06/16 02:16:27;;;;;;;;;;;19.70;94.40;;;;;;4361683;32;43419;-78
2022/06/16 02:18:55;;;;;;;;;;;19.70;94.40;;;;;;4360505;32;43040;-77
2022/06/16 02:21:28;;;;;;;;;;;19.70;94.60;;;;;;4361332;32;42902;-78
2022/06/16 02:23:55;;;;;;;;;;;19.60;94.40;;;;;;4361774;32;44068;-78
2022/06/16 02:26:23;;;;;;;;;;;19.60;94.30;;;;;;4361657;32;43857;-78
2022/06/16 02:28:52;;;;;;;;;;;19.60;94.30;;;;;;4361618;32;43224;-78
2022/06/16 02:31:31;;;;;;;;;;;19.60;94.30;;;;;;4361405;32;44910;-78
2022/06/16 02:34:04;;;;;;;;;;;19.50;94.50;;;;;;4361746;32;44041;-77
2022/06/16 02:36:43;;;;;;;;;;;19.60;94.50;;;;;;4361117;32;43190;-77
2022/06/16 02:39:37;;;;;;;;;;;19.50;94.40;;;;;;4361628;32;44311;-77
2022/06/16 02:42:16;;;;;;;;;;;19.50;94.40;;;;;;4348773;32;43471;-77
2022/06/16 02:45:01;;;;;;;;;;;19.50;94.60;;;;;;4348179;32;43896;-77
2022/06/16 02:50:26;;;;;;;;;;;19.50;94.80;;;;;;4361468;32;43494;-77
2022/06/16 02:52:58;;;;;;;;;;;19.50;94.90;;;;;;4347930;32;43282;-78
2022/06/16 02:55:47;;;;;;;;;;;19.50;94.70;;;;;;4360991;32;41848;-77
2022/06/16 02:58:17;;;;;;;;;;;19.50;94.90;;;;;;4361183;32;43444;-77
2022/06/16 03:00:49;;;;;;;;;;;19.50;95.00;;;;;;4360928;32;42702;-77
2022/06/16 03:03:19;;;;;;;;;;;19.50;95.00;;;;;;4360484;32;43146;-77
2022/06/16 03:05:50;;;;;;;;;;;19.50;95.00;;;;;;4360936;32;42533;-77
2022/06/16 03:08:17;;;;;;;;;;;19.50;95.00;;;;;;4347518;32;43863;-76
2022/06/16 03:10:51;;;;;;;;;;;19.50;95.10;;;;;;4360857;32;43348;-77
2022/06/16 03:13:21;;;;;;;;;;;19.50;95.10;;;;;;4347303;32;44507;-76
2022/06/16 03:15:48;;;;;;;;;;;19.50;95.10;;;;;;4360587;32;42091;-77
2022/06/16 03:18:16;;;;;;;;;;;19.50;95.00;;;;;;4347174;32;43131;-77
2022/06/16 03:20:43;;;;;;;;;;;19.40;95.00;;;;;;4360931;32;45720;-77
2022/06/16 03:23:10;;;;;;;;;;;19.40;95.00;;;;;;4360843;32;43853;-77
2022/06/16 03:25:38;;;;;;;;;;;19.40;95.10;;;;;;4360616;32;44644;-77
2022/06/16 03:28:05;;;;;;;;;;;19.40;95.20;;;;;;4360319;32;44030;-76
2022/06/16 03:30:33;;;;;;;;;;;19.40;95.10;;;;;;4346791;32;43316;-77
2022/06/16 03:33:01;;;;;;;;;;;19.40;95.10;;;;;;4347449;32;43912;-76
2022/06/16 03:35:28;;;;;;;;;;;19.40;95.20;;;;;;4346892;32;43862;-76
2022/06/16 03:37:55;;;;;;;;;;;19.40;95.20;;;;;;4360463;32;44208;-77
2022/06/16 03:40:22;;;;;;;;;;;19.30;95.20;;;;;;4360409;32;44176;-76
2022/06/16 03:42:49;;;;;;;;;;;19.40;95.20;;;;;;4347305;32;43711;-76
2022/06/16 03:45:19;;;;;;;;;;;19.30;95.20;;;;;;4360669;32;44331;-76
2022/06/16 03:47:46;;;;;;;;;;;19.30;95.20;;;;;;4359990;32;44331;-76
2022/06/16 03:50:14;;;;;;;;;;;19.30;95.10;;;;;;4347120;32;43181;-77
2022/06/16 03:52:41;;;;;;;;;;;19.30;95.20;;;;;;4360464;32;43965;-76
2022/06/16 03:55:09;;;;;;;;;;;19.20;95.00;;;;;;4360098;32;43358;-76
2022/06/16 03:57:36;;;;;;;;;;;19.20;95.00;;;;;;4346740;32;42586;-76
2022/06/16 04:00:04;;;;;;;;;;;19.20;95.00;;;;;;4346768;32;44220;-76
2022/06/16 04:02:31;;;;;;;;;;;19.20;95.00;;;;;;4360097;32;43586;-76
2022/06/16 04:05:00;;;;;;;;;;;19.20;95.00;;;;;;4360338;32;42852;-76
2022/06/16 04:07:28;;;;;;;;;;;19.20;95.00;;;;;;4359772;32;44196;-76
2022/06/16 04:09:56;;;;;;;;;;;19.20;95.30;;;;;;4359981;32;43042;-76
2022/06/16 04:12:23;;;;;;;;;;;19.20;95.20;;;;;;4346398;32;42834;-76
2022/06/16 04:14:50;;;;;;;;;;;19.10;95.20;;;;;;4359644;32;43260;-77
2022/06/16 04:17:17;;;;;;;;;;;19.20;95.20;;;;;;4360131;32;45777;-77
2022/06/16 04:22:30;;;;;;;;;;;19.10;95.30;;;;;;4359817;32;43761;-76
2022/06/16 04:24:57;;;;;;;;;;;19.20;95.30;;;;;;4359759;32;42466;-76
2022/06/16 04:27:24;;;;;;;;;;;19.20;95.40;;;;;;4359970;32;42901;-76
2022/06/16 04:29:51;;;;;;;;;;;19.20;95.40;;;;;;4360026;32;43686;-76
2022/06/16 04:32:18;;;;;;;;;;;19.20;95.40;;;;;;4360076;32;44257;-77
2022/06/16 04:34:45;;;;;;;;;;;19.10;95.50;;;;;;4346947;33;45797;-77
2022/06/16 04:37:12;;;;;;;;;;;19.10;95.50;;;;;;4360082;32;43471;-77
2022/06/16 04:39:39;;;;;;;;;;;19.10;95.60;;;;;;4359451;32;43197;-77
2022/06/16 04:42:06;;;;;;;;;;;19.10;95.70;;;;;;4347007;32;43854;-77
2022/06/16 04:44:34;;;;;;;;;;;19.20;95.60;;;;;;4362922;32;42343;-77
2022/06/16 04:47:06;;;;;;;;;;;19.10;95.70;;;;;;4362496;32;44214;-77
2022/06/16 04:49:37;;;;;;;;;;;19.10;95.70;;;;;;4363194;32;43168;-76
2022/06/16 04:52:05;;;;;;;;;;;19.10;95.80;;;;;;4363043;32;46149;-77
2022/06/16 04:54:33;;;;;;;;;;;19.10;95.80;;;;;;4349082;32;42684;-76
2022/06/16 04:57:00;;;;;;;;;;;19.10;95.90;;;;;;4362400;32;43515;-76
2022/06/16 04:59:27;;;;;;;;;;;19.10;95.90;;;;;;4349030;32;43078;-76
2022/06/16 05:01:54;;;;;;;;;;;19.10;96.00;;;;;;4348787;32;44202;-76
2022/06/16 05:04:24;;;;;;;;;;;19.10;96.00;;;;;;4348990;32;42625;-76
2022/06/16 05:06:51;;;;;;;;;;;19.10;96.10;;;;;;4348773;32;42693;-76
2022/06/16 05:09:18;;;;;;;;;;;19.10;96.10;;;;;;4349254;32;43569;-76
2022/06/16 05:11:45;;;;;;;;;;;19.10;96.20;;;;;;4362550;32;43063;-76
2022/06/16 05:14:12;;;;;;;;;;;19.10;96.30;;;;;;4362235;32;44605;-76
2022/06/16 05:16:39;;;;;;;;;;;19.10;96.40;;;;;;4349301;32;45759;-76
2022/06/16 05:19:06;;;;;;;;;;;19.00;96.40;;;;;;4361849;32;44211;-76
2022/06/16 05:21:34;;;;;;;;;;;19.10;96.50;;;;;;4349300;32;43303;-77
2022/06/16 05:24:01;;;;;;;;;;;19.10;96.50;;;;;;4362268;32;43871;-76
2022/06/16 05:26:28;;;;;;;;;;;19.00;96.50;;;;;;4362368;32;43521;-76
2022/06/16 05:28:56;;;;;;;;;;;19.00;96.40;;;;;;4349013;32;43799;-76
2022/06/16 05:31:23;;;;;;;;;;;19.10;96.30;;;;;;4348589;32;43359;-76
2022/06/16 05:33:50;;;;;;;;;;;19.10;96.40;;;;;;4349042;32;43175;-76
2022/06/16 05:36:20;;;;;;;;;;;19.10;96.40;;;;;;4349158;32;43649;-76
2022/06/16 05:38:47;;;;;;;;;;;19.00;96.40;;;;;;4348340;32;45020;-76
2022/06/16 05:41:15;;;;;;;;;;;19.10;96.40;;;;;;4361816;32;42959;-77
2022/06/16 05:43:43;;;;;;;;;;;19.00;96.20;;;;;;4362131;32;43183;-76
2022/06/16 05:46:20;;;;;;;;;;;19.00;96.20;;;;;;4362298;32;43185;-76
2022/06/16 05:48:47;;;;;;;;;;;19.00;96.20;;;;;;4362206;32;44601;-76
2022/06/16 05:51:15;;;;;;;;;;;19.00;96.20;;;;;;4348741;32;43479;-76
2022/06/16 05:53:43;;;;;;;;;;;19.00;96.20;;;;;;4361872;32;44082;-76
2022/06/16 05:56:12;;;;;;;;;;;19.00;96.10;;;;;;4348786;32;42847;-76
2022/06/16 05:58:40;;;;;;;;;;;19.00;96.10;;;;;;4361262;32;42460;-76
2022/06/16 06:01:07;;;;;;;;;;;19.00;95.90;;;;;;4348294;32;44097;-76
2022/06/16 06:03:36;;;;;;;;;;;19.00;96.00;;;;;;4361449;32;43230;-76
2022/06/16 06:06:03;;;;;;;;;;;19.00;95.90;;;;;;4361938;32;44191;-76
2022/06/16 06:16:51;;;;;;;;;;;19.10;95.60;;;;;;4361970;32;41967;-76
2022/06/16 06:19:24;;;;;;;;;;;19.00;95.90;;;;;;4362013;32;20023;-76
2022/06/16 06:21:58;;;;;;;;;;;19.10;95.70;;;;;;4361686;32;43471;-76
2022/06/16 06:24:26;;;;;;;;;;;19.10;95.80;;;;;;4361838;32;43933;-76
2022/06/16 06:26:54;;;;;;;;;;;19.10;95.50;;;;;;4361452;32;44219;-77
2022/06/16 06:29:21;;;;;;;;;;;19.00;95.60;;;;;;4348294;32;43375;-76
2022/06/16 06:31:48;;;;;;;;;;;19.00;95.60;;;;;;4361485;32;42994;-76
2022/06/16 06:34:15;;;;;;;;;;;19.10;95.60;;;;;;4347957;32;43613;-76
2022/06/16 06:36:42;;;;;;;;;;;19.10;95.70;;;;;;4347736;32;43169;-76
2022/06/16 06:39:13;;;;;;;;;;;19.00;95.70;;;;;;4361459;32;43482;-76
2022/06/16 06:41:40;;;;;;;;;;;19.10;95.60;;;;;;4361399;32;43081;-76
2022/06/16 06:44:08;;;;;;;;;;;19.10;95.50;;;;;;4348017;32;42924;-76
2022/06/16 06:46:35;;;;;;;;;;;19.10;95.60;;;;;;4360975;32;43029;-77
2022/06/16 06:49:02;;;;;;;;;;;19.10;95.40;;;;;;4360878;32;43206;-75
2022/06/16 06:51:32;;;;;;;;;;;19.10;95.50;;;;;;4361267;32;43843;-77
2022/06/16 06:54:00;;;;;;;;;;;19.10;95.70;;;;;;4361092;32;43207;-76
2022/06/16 06:56:28;;;;;;;;;;;19.10;95.40;;;;;;4361137;32;43858;-76
2022/06/16 06:58:57;;;;;;;;;;;19.10;95.50;;;;;;4361144;32;43204;-77
2022/06/16 07:01:24;;;;;;;;;;;19.10;95.40;;;;;;4347075;32;44334;-77
2022/06/16 07:03:51;;;;;;;;;;;19.20;95.40;;;;;;4361141;32;43833;-77
2022/06/16 07:06:19;;;;;;;;;;;19.20;95.40;;;;;;4346750;32;46029;-77
2022/06/16 07:08:48;;;;;;;;;;;19.10;95.10;;;;;;4361027;32;44137;-76
2022/06/16 07:11:15;;;;;;;;;;;19.20;95.20;;;;;;4360831;32;43711;-76
2022/06/16 07:13:43;;;;;;;;;;;19.20;95.40;;;;;;4360466;32;43669;-76
2022/06/16 07:16:11;;;;;;;;;;;19.20;95.60;;;;;;4347213;32;43495;-77
2022/06/16 07:18:41;;;;;;;;;;;19.20;95.30;;;;;;4347214;32;42750;-76
2022/06/16 07:21:11;;;;;;;;;;;19.20;95.20;;;;;;4360967;32;43195;-76
2022/06/16 07:23:38;;;;;;;;;;;19.30;95.40;;;;;;4347374;32;44030;-77
2022/06/16 07:26:11;;;;;;;;;;;19.30;95.30;;;;;;4360917;32;43291;-76
2022/06/16 07:28:39;;;;;;;;;;;19.30;95.60;;;;;;4347450;32;42811;-76
2022/06/16 07:31:06;;;;;;;;;;;19.30;95.50;;;;;;4347111;32;43517;-76
2022/06/16 07:33:53;;;;;;;;;;;19.30;95.60;;;;;;4349496;32;45900;-76
2022/06/16 07:36:21;;;;;;;;;;;19.30;95.60;;;;;;4346777;32;43456;-76
2022/06/16 07:38:51;;;;;;;;;;;19.30;95.70;;;;;;4360149;32;43479;-76
2022/06/16 07:41:31;;;;;;;;;;;19.30;94.60;;;;;;4360020;32;44183;-76
2022/06/16 07:43:58;;;;;;;;;;;19.30;95.10;;;;;;4347186;32;43716;-76
2022/06/16 07:46:26;;;;;;;;;;;19.40;95.40;;;;;;4360030;32;43596;-77
2022/06/16 07:48:53;;;;;;;;;;;19.40;94.50;;;;;;4360442;32;43181;-77
2022/06/16 07:51:20;;;;;;;;;;;19.40;94.90;;;;;;4360121;32;43928;-76
2022/06/16 07:53:48;;;;;;;;;;;19.40;94.40;;;;;;4347028;32;46106;-76
2022/06/16 07:56:15;;;;;;;;;;;19.50;94.40;;;;;;4360183;32;43576;-76
2022/06/16 07:58:43;;;;;;;;;;;19.40;94.70;;;;;;4346913;32;43218;-76
2022/06/16 08:01:11;;;;;;;;;;;19.50;94.60;;;;;;4360037;32;42622;-76
2022/06/16 08:03:38;;;;;;;;;;;19.50;94.50;;;;;;4346997;32;43184;-75
2022/06/16 08:06:08;;;;;;;;;;;19.50;94.80;;;;;;4359963;32;42697;-77
2022/06/16 08:08:35;;;;;;;;;;;19.50;94.40;;;;;;4346685;32;42696;-76
2022/06/16 08:11:02;;;;;;;;;;;19.50;94.60;;;;;;4346990;32;43514;-76
2022/06/16 08:13:29;;;;;;;;;;;19.50;94.60;;;;;;4346951;32;43427;-76
2022/06/16 08:15:56;;;;;;;;;;;19.50;94.70;;;;;;4346094;33;42966;-76
2022/06/16 08:18:24;;;;;;;;;;;19.60;95.00;;;;;;4359574;32;43540;-76
2022/06/16 08:20:52;;;;;;;;;;;19.60;95.00;;;;;;4359732;32;42962;-77
2022/06/16 08:23:19;;;;;;;;;;;19.60;94.80;;;;;;4359965;32;43661;-76
2022/06/16 08:25:47;;;;;;;;;;;19.60;95.00;;;;;;4346798;32;45710;-76
2022/06/16 08:28:16;;;;;;;;;;;19.60;95.10;;;;;;4346336;33;43224;-77
2022/06/16 08:30:46;;;;;;;;;;;19.60;94.80;;;;;;4360082;32;43050;-77
2022/06/16 08:33:15;;;;;;;;;;;19.60;94.80;;;;;;4346953;33;43190;-77
2022/06/16 08:35:43;;;;;;;;;;;19.60;95.00;;;;;;4359616;33;43294;-77
2022/06/16 08:38:10;;;;;;;;;;;19.60;95.00;;;;;;4346535;33;42285;-77
2022/06/16 08:40:43;;;;;;;;;;;19.60;95.20;;;;;;4359895;33;45142;-77
2022/06/16 08:43:18;;;;;;;;;;;19.60;95.20;;;;;;4359585;33;44094;-78
2022/06/16 08:45:49;;;;;;;;;;;19.60;95.30;;;;;;4359524;33;42778;-77
2022/06/16 08:48:21;;;;;;;;;;;19.70;94.90;;;;;;4359872;33;43485;-77
2022/06/16 08:50:54;;;;;;;;;;;19.70;95.10;;;;;;4346525;33;43745;-77
2022/06/16 08:53:39;;;;;;;;;;;19.70;95.10;;;;;;4346725;33;43512;-76
2022/06/16 08:56:20;;;;;;;;;;;19.70;95.00;;;;;;4346754;33;43393;-76
2022/06/16 08:58:54;;;;;;;;;;;19.70;95.10;;;;;;4359696;33;42706;-76
2022/06/16 09:01:27;;;;;;;;;;;19.70;94.70;;;;;;4359508;33;44270;-76
2022/06/16 09:04:01;;;;;;;;;;;19.70;94.90;;;;;;4346686;33;43710;-76
2022/06/16 09:06:31;;;;;;;;;;;19.70;94.70;;;;;;4359957;33;43600;-76
2022/06/16 09:09:08;;;;;;;;;;;19.70;93.90;;;;;;4359968;33;43862;-76
2022/06/16 09:11:38;;;;;;;;;;;19.80;94.20;;;;;;4359784;33;43478;-76
2022/06/16 09:17:33;;;;;;;;;;;19.80;93.40;;;;;;4359712;33;42221;-76
2022/06/16 09:20:08;;;;;;;;;;;19.80;93.90;;;;;;4359207;33;44320;-76
2022/06/16 09:22:37;;;;;;;;;;;19.80;93.40;;;;;;4359795;33;44325;-76
2022/06/16 09:25:30;;;;;;;;;;;19.80;93.50;;;;;;4345851;33;42833;-78
2022/06/16 09:28:01;;;;;;;;;;;19.80;93.80;;;;;;4324366;32;42652;-77
2022/06/16 09:30:31;;;;;;;;;;;19.90;93.70;;;;;;4361969;32;42648;-76
2022/06/16 09:33:00;;;;;;;;;;;19.90;93.40;;;;;;4362282;32;44106;-76
2022/06/16 09:35:37;;;;;;;;;;;19.90;93.70;;;;;;4362637;32;43902;-76
2022/06/16 09:38:23;;;;;;;;;;;20.00;94.30;;;;;;4362022;32;43615;-76
2022/06/16 09:40:53;;;;;;;;;;;20.00;93.80;;;;;;4348676;32;43199;-76
2022/06/16 09:43:33;;;;;;;;;;;20.00;94.00;;;;;;4349073;32;43259;-76
2022/06/16 09:46:00;;;;;;;;;;;19.90;93.40;;;;;;4361636;32;43320;-76
2022/06/16 09:48:33;;;;;;;;;;;20.00;93.70;;;;;;4348276;32;43003;-76
2022/06/16 09:51:00;;;;;;;;;;;20.00;93.20;;;;;;4348317;32;42949;-76
2022/06/16 09:53:33;;;;;;;;;;;20.00;93.20;;;;;;4349168;32;20410;-76
2022/06/16 09:56:07;;;;;;;;;;;20.00;93.70;;;;;;4362054;32;43889;-76
2022/06/16 09:58:38;;;;;;;;;;;20.00;93.60;;;;;;4348717;32;45007;-76
2022/06/16 10:01:08;;;;;;;;;;;20.00;93.10;;;;;;4361542;32;43288;-76
2022/06/16 10:03:50;;;;;;;;;;;20.00;93.50;;;;;;4347866;32;44098;-76
2022/06/16 10:06:17;;;;;;;;;;;20.00;93.60;;;;;;4348526;32;43293;-76
2022/06/16 10:09:08;;;;;;;;;;;20.00;92.90;;;;;;4361179;32;43846;-76
2022/06/16 10:11:35;;;;;;;;;;;20.00;93.30;;;;;;4362066;32;43192;-77
2022/06/16 10:14:19;;;;;;;;;;;20.10;93.60;;;;;;4361327;32;44021;-76
2022/06/16 10:16:46;;;;;;;;;;;20.10;93.50;;;;;;4362034;32;43010;-76
2022/06/16 10:19:13;;;;;;;;;;;20.10;92.30;;;;;;4361734;32;43896;-77
2022/06/16 10:21:40;;;;;;;;;;;20.10;92.60;;;;;;4361269;32;43680;-76
2022/06/16 10:24:07;;;;;;;;;;;20.10;92.30;;;;;;4362130;32;20451;-76
2022/06/16 10:26:35;;;;;;;;;;;20.10;91.40;;;;;;4347747;32;45684;-76
2022/06/16 10:29:03;;;;;;;;;;;20.20;91.60;;;;;;4347949;32;43199;-75
2022/06/16 10:31:41;;;;;;;;;;;20.20;91.70;;;;;;4348071;32;43074;-76
2022/06/16 10:34:17;;;;;;;;;;;20.20;92.10;;;;;;4360977;32;42870;-76
2022/06/16 10:36:50;;;;;;;;;;;20.20;92.30;;;;;;4348351;32;43889;-76
2022/06/16 10:39:20;;;;;;;;;;;20.20;91.90;;;;;;4360903;32;43276;-76
2022/06/16 10:41:52;;;;;;;;;;;20.30;92.20;;;;;;4347987;32;43199;-76
2022/06/16 10:44:22;;;;;;;;;;;20.30;91.10;;;;;;4360923;32;43908;-77
2022/06/16 10:46:55;;;;;;;;;;;20.30;91.20;;;;;;4361280;32;42973;-76
2022/06/16 10:49:25;;;;;;;;;;;20.30;90.80;;;;;;4360704;32;43482;-76
2022/06/16 10:52:02;;;;;;;;;;;20.30;91.70;;;;;;4348366;32;43333;-76
2022/06/16 10:54:36;;;;;;;;;;;20.30;90.60;;;;;;4348726;32;20020;-76
2022/06/16 10:57:12;;;;;;;;;;;20.30;89.30;;;;;;4347478;32;43721;-76
2022/06/16 10:59:45;;;;;;;;;;;20.40;88.70;;;;;;4361197;32;43223;-76
2022/06/16 11:02:25;;;;;;;;;;;20.40;90.30;;;;;;4360585;32;44545;-77
2022/06/16 11:04:58;;;;;;;;;;;20.40;89.10;;;;;;4347502;32;42867;-77
2022/06/16 11:07:27;;;;;;;;;;;20.40;89.30;;;;;;4361121;32;42626;-76
2022/06/16 11:10:00;;;;;;;;;;;20.40;88.90;;;;;;4360719;32;44211;-76
2022/06/16 11:12:27;;;;;;;;;;;20.40;89.50;;;;;;4347751;32;44983;-77
2022/06/16 11:14:56;;;;;;;;;;;20.40;88.80;;;;;;4360456;32;43260;-77
2022/06/16 11:17:23;;;;;;;;;;;20.50;89.30;;;;;;4361025;32;44216;-77
2022/06/16 11:20:01;;;;;;;;;;;20.50;88.10;;;;;;4347569;32;43850;-76
2022/06/16 11:22:29;;;;;;;;;;;20.50;88.50;;;;;;4347766;32;44101;-77
2022/06/16 11:25:05;;;;;;;;;;;20.50;88.60;;;;;;4361669;32;20195;-77
2022/06/16 11:27:49;;;;;;;;;;;20.50;86.90;;;;;;4360805;32;45793;-76
2022/06/16 11:30:27;;;;;;;;;;;20.50;88.10;;;;;;4347433;32;44431;-77
2022/06/16 11:32:54;;;;;;;;;;;20.50;87.50;;;;;;4347500;32;44220;-76
2022/06/16 11:35:26;;;;;;;;;;;20.50;88.10;;;;;;4346888;32;43221;-76
2022/06/16 11:38:01;;;;;;;;;;;20.60;87.20;;;;;;4347641;32;43327;-76
2022/06/16 11:41:04;;;;;;;;;;;20.60;85.90;;;;;;4360660;32;43910;-76
2022/06/16 11:43:34;;;;;;;;;;;20.60;87.70;;;;;;4313753;33;43583;-76
2022/06/16 11:46:01;;;;;;;;;;;20.60;85.00;;;;;;4352409;32;43636;-76
2022/06/16 11:48:28;;;;;;;;;;;20.60;87.70;;;;;;4360213;32;43645;-76
2022/06/16 11:51:07;;;;;;;;;;;20.60;86.20;;;;;;4359705;32;43766;-76
2022/06/16 11:53:40;;;;;;;;;;;20.60;87.00;;;;;;4359882;32;43654;-77
2022/06/16 11:56:10;;;;;;;;;;;20.60;86.20;;;;;;4360669;32;44220;-76
2022/06/16 11:58:40;;;;;;;;;;;20.60;85.60;;;;;;4360636;32;43474;-76
2022/06/16 12:01:13;;;;;;;;;;;20.60;85.70;;;;;;4359901;32;44252;-77
2022/06/16 12:03:56;;;;;;;;;;;20.70;86.00;;;;;;4346660;32;44300;-76
2022/06/16 12:06:52;;;;;;;;;;;20.70;86.90;;;;;;4347603;32;45053;-76
2022/06/16 12:09:39;;;;;;;;;;;20.70;87.60;;;;;;4360148;32;42545;-76
2022/06/16 12:12:06;;;;;;;;;;;20.70;84.70;;;;;;4360298;32;42253;-77
2022/06/16 12:14:45;;;;;;;;;;;20.70;86.20;;;;;;4359859;32;42942;-76
2022/06/16 12:17:18;;;;;;;;;;;20.80;85.40;;;;;;4346572;32;44258;-76
2022/06/16 12:19:58;;;;;;;;;;;20.80;85.30;;;;;;4347067;32;44172;-76
2022/06/16 12:22:57;;;;;;;;;;;20.80;85.70;;;;;;4360039;32;46293;-77
2022/06/16 12:25:30;;;;;;;;;;;20.80;86.20;;;;;;4361342;32;20012;-76
2022/06/16 12:27:58;;;;;;;;;;;20.80;86.90;;;;;;4346711;32;42941;-76
2022/06/16 12:30:40;;;;;;;;;;;20.90;85.20;;;;;;4359903;32;43732;-76
2022/06/16 12:33:07;;;;;;;;;;;20.90;85.20;;;;;;4346651;33;42719;-76
2022/06/16 12:35:36;;;;;;;;;;;20.90;85.20;;;;;;4359546;33;43884;-76
2022/06/16 12:38:07;;;;;;;;;;;20.90;85.30;;;;;;4346311;33;42891;-76
2022/06/16 12:40:37;;;;;;;;;;;20.90;85.30;;;;;;4359895;33;42642;-77
2022/06/16 12:43:09;;;;;;;;;;;20.90;85.70;;;;;;4359912;33;43787;-77
2022/06/16 12:45:48;;;;;;;;;;;20.90;86.10;;;;;;4360019;33;42227;-76
2022/06/16 12:48:18;;;;;;;;;;;20.90;86.60;;;;;;4359526;33;43911;-76
2022/06/16 12:50:48;;;;;;;;;;;20.90;86.20;;;;;;4346127;33;43055;-76
2022/06/16 12:53:38;;;;;;;;;;;21.00;84.90;;;;;;4360057;32;44218;-77
2022/06/16 12:56:08;;;;;;;;;;;21.00;85.90;;;;;;4333251;33;20464;-76
2022/06/16 12:58:58;;;;;;;;;;;21.00;85.40;;;;;;4346126;33;44134;-76
2022/06/16 13:01:25;;;;;;;;;;;21.00;85.10;;;;;;4359684;33;42922;-76
2022/06/16 13:04:00;;;;;;;;;;;21.00;85.80;;;;;;4346464;33;41889;-76
2022/06/16 13:06:27;;;;;;;;;;;21.00;84.30;;;;;;4348045;33;44176;-77
2022/06/16 13:08:56;;;;;;;;;;;21.10;84.70;;;;;;4347842;33;42926;-76
2022/06/16 13:11:29;;;;;;;;;;;21.10;84.20;;;;;;4347612;33;42749;-77
2022/06/16 13:14:01;;;;;;;;;;;21.10;84.70;;;;;;4347659;33;43645;-76
2022/06/16 13:16:30;;;;;;;;;;;21.10;86.50;;;;;;4346265;33;42864;-76
2022/06/16 13:19:05;;;;;;;;;;;21.20;86.20;;;;;;4347249;32;43939;-76
2022/06/16 13:21:36;;;;;;;;;;;21.20;85.20;;;;;;4346618;33;43254;-76
2022/06/16 13:24:10;;;;;;;;;;;21.20;84.40;;;;;;4346964;33;44350;-76
2022/06/16 13:26:53;;;;;;;;;;;21.20;84.40;;;;;;4347750;33;43868;-76
2022/06/16 13:29:20;;;;;;;;;;;21.20;85.80;;;;;;4347477;33;43717;-76
2022/06/16 13:31:58;;;;;;;;;;;21.30;83.50;;;;;;4347116;33;44025;-76
2022/06/16 13:34:41;;;;;;;;;;;21.40;83.30;;;;;;4347749;33;43810;-76
2022/06/16 13:37:08;;;;;;;;;;;21.40;83.60;;;;;;4346051;33;42054;-76
2022/06/16 13:39:48;;;;;;;;;;;21.40;82.40;;;;;;4347359;33;43189;-76
2022/06/16 13:42:20;;;;;;;;;;;21.40;83.90;;;;;;4347404;33;43557;-76
2022/06/16 13:45:22;;;;;;;;;;;21.50;83.10;;;;;;4346447;32;43096;-76
2022/06/16 13:48:16;;;;;;;;;;;21.50;83.50;;;;;;4315972;33;43851;-76
2022/06/16 13:51:02;;;;;;;;;;;21.50;83.20;;;;;;4346679;32;44055;-75
2022/06/16 13:53:41;;;;;;;;;;;21.50;84.00;;;;;;4347492;33;43502;-76
2022/06/16 13:56:10;;;;;;;;;;;21.50;84.00;;;;;;4347526;33;43513;-77
2022/06/16 13:58:58;;;;;;;;;;;21.50;82.20;;;;;;4346471;33;45168;-77
2022/06/16 14:01:32;;;;;;;;;;;21.50;82.40;;;;;;4346902;33;43869;-76
2022/06/16 14:04:07;;;;;;;;;;;21.50;83.50;;;;;;4347141;32;43670;-76
2022/06/16 14:06:40;;;;;;;;;;;21.60;84.20;;;;;;4346260;33;43043;-76
2022/06/16 14:09:09;;;;;;;;;;;21.60;83.40;;;;;;4347158;33;43129;-76
2022/06/16 14:11:41;;;;;;;;;;;21.60;83.70;;;;;;4347000;33;42839;-76
2022/06/16 14:14:16;;;;;;;;;;;21.60;82.50;;;;;;4347025;33;43044;-77
2022/06/16 14:16:47;;;;;;;;;;;21.60;83.30;;;;;;4347239;33;43192;-76
2022/06/16 14:19:21;;;;;;;;;;;21.70;83.50;;;;;;4346240;33;43285;-76
2022/06/16 14:21:55;;;;;;;;;;;21.70;83.30;;;;;;4345822;33;44770;-77
2022/06/16 14:24:22;;;;;;;;;;;21.70;82.50;;;;;;4346919;33;43076;-76
2022/06/16 14:26:49;;;;;;;;;;;21.70;82.50;;;;;;4346545;33;42529;-76
2022/06/16 14:29:18;;;;;;;;;;;21.80;82.30;;;;;;4346248;33;22650;-77
2022/06/16 14:31:58;;;;;;;;;;;21.80;83.90;;;;;;4345263;33;43107;-76
2022/06/16 14:34:44;;;;;;;;;;;21.80;80.70;;;;;;4346341;33;42846;-76
2022/06/16 14:37:17;;;;;;;;;;;21.80;82.00;;;;;;4346372;33;43446;-76
2022/06/16 14:39:50;;;;;;;;;;;21.80;81.90;;;;;;4347016;33;44188;-77
2022/06/16 14:42:19;;;;;;;;;;;21.80;82.00;;;;;;4346221;33;43557;-76
2022/06/16 14:44:51;;;;;;;;;;;21.90;81.50;;;;;;4346120;33;44211;-77
2022/06/16 14:47:28;;;;;;;;;;;21.90;81.70;;;;;;4345621;33;44252;-76
2022/06/16 14:50:07;;;;;;;;;;;21.90;80.90;;;;;;4345554;33;45777;-77
2022/06/16 14:52:37;;;;;;;;;;;21.90;81.10;;;;;;4346560;33;43708;-76
2022/06/16 14:55:06;;;;;;;;;;;21.90;79.90;;;;;;4345945;33;42664;-76
2022/06/16 14:57:36;;;;;;;;;;;21.90;81.30;;;;;;4346396;33;43895;-76
2022/06/16 15:00:03;;;;;;;;;;;22.00;81.20;;;;;;4345832;33;19998;-76
2022/06/16 15:02:32;;;;;;;;;;;21.90;79.60;;;;;;4352802;32;43217;-75